createdAt,value
2022-08-10T00:00:53.676Z,91.85
2022-08-10T00:05:58.640Z,91.51
2022-08-10T00:11:01.954Z,92.06
2022-08-10T00:16:07.249Z,92.18
2022-08-10T00:21:13.037Z,92.85
2022-08-10T00:26:16.394Z,93.15
2022-08-10T00:31:21.757Z,93.35
2022-08-10T00:36:26.465Z,94.62
2022-08-10T00:41:35.140Z,94.63
2022-08-10T00:46:38.450Z,94.59
2022-08-10T00:51:48.750Z,94.98
2022-08-10T00:57:16.804Z,95.44
2022-08-10T01:02:15.794Z,96.46
2022-08-10T01:07:30.929Z,97.95
2022-08-10T01:12:42.497Z,97.11
2022-08-10T01:17:53.505Z,99.01
2022-08-10T01:23:38.474Z,97.87
2022-08-10T01:28:56.985Z,99.97
2022-08-10T01:34:08.837Z,99.22
2022-08-10T01:39:17.060Z,98.27
2022-08-10T01:44:29.506Z,99.27
2022-08-10T01:49:36.022Z,100.00
2022-08-10T01:54:42.690Z,99.80
2022-08-10T01:59:58.534Z,99.60
2022-08-10T02:05:11.337Z,99.75
2022-08-10T02:10:19.296Z,99.98
2022-08-10T02:15:23.997Z,100.00
2022-08-10T02:20:33.682Z,100.00
2022-08-10T02:25:41.774Z,100.00
2022-08-10T02:30:48.208Z,100.00
2022-08-10T02:35:56.189Z,100.00
2022-08-10T02:45:02.154Z,100.00
2022-08-10T02:46:35.090Z,100.00
2022-08-10T02:52:06.855Z,100.00
2022-08-10T02:57:15.450Z,100.00
2022-08-10T03:02:26.525Z,100.00
2022-08-10T03:07:45.094Z,100.00
2022-08-10T03:13:01.267Z,100.00
2022-08-10T03:18:06.525Z,100.00
2022-08-10T03:23:15.443Z,100.00
2022-08-10T03:28:20.738Z,100.00
2022-08-10T03:33:28.371Z,100.00
2022-08-10T03:38:33.197Z,100.00
2022-08-10T03:43:37.486Z,100.00
2022-08-10T03:48:49.362Z,100.00
2022-08-10T03:54:04.280Z,100.00
2022-08-10T03:59:12.048Z,100.00
2022-08-10T04:04:21.000Z,100.00
2022-08-10T04:09:53.353Z,100.00
2022-08-10T04:14:53.961Z,100.00
2022-08-10T04:20:00.509Z,100.00
2022-08-10T04:25:07.788Z,100.00
2022-08-10T04:30:12.187Z,100.00
2022-08-10T04:35:20.045Z,100.00
2022-08-10T04:40:30.260Z,100.00
2022-08-10T04:45:47.683Z,100.00
2022-08-10T04:50:54.219Z,100.00
2022-08-10T04:55:59.621Z,100.00
2022-08-10T05:01:02.986Z,100.00
2022-08-10T05:06:07.005Z,100.00
2022-08-10T05:11:11.706Z,99.54
2022-08-10T05:16:32.151Z,99.35
2022-08-10T05:22:03.058Z,97.98
2022-08-10T05:27:10.144Z,96.34
2022-08-10T05:32:14.162Z,95.18
2022-08-10T05:38:09.731Z,95.40
2022-08-10T05:42:43.649Z,95.24
2022-08-10T05:48:55.065Z,93.40
2022-08-10T05:53:59.660Z,91.94
2022-08-10T05:58:35.762Z,90.62
2022-08-10T06:03:44.673Z,80.52
2022-08-10T06:08:50.525Z,64.77
2022-08-10T06:14:16.204Z,53.12
2022-08-10T06:19:22.628Z,42.69
2022-08-10T06:24:30.131Z,39.69
2022-08-10T06:29:38.950Z,38.37
2022-08-10T06:34:47.633Z,37.76
2022-08-10T06:39:51.092Z,35.79
2022-08-10T06:45:00.213Z,33.01
2022-08-10T06:50:09.374Z,31.93
2022-08-10T06:55:16.879Z,29.96
2022-08-10T07:00:27.694Z,29.00
2022-08-10T07:05:42.969Z,29.14
2022-08-10T07:10:48.620Z,28.35
2022-08-10T07:15:59.454Z,28.26
2022-08-10T07:21:06.414Z,27.38
2022-08-10T07:26:11.648Z,27.56
2022-08-10T07:31:34.859Z,28.04
2022-08-10T07:36:45.893Z,27.05
2022-08-10T07:41:52.834Z,26.78
2022-08-10T07:47:04.289Z,26.05
2022-08-10T07:52:08.578Z,25.81
2022-08-10T07:57:31.134Z,25.46
2022-08-10T08:02:42.788Z,26.26
2022-08-10T08:07:47.754Z,24.71
2022-08-10T08:12:52.929Z,23.54
2022-08-10T08:18:00.970Z,23.52
2022-08-10T08:24:05.992Z,22.16
2022-08-10T08:28:30.430Z,22.84
2022-08-10T08:33:42.582Z,22.90
2022-08-10T08:38:48.428Z,24.63
2022-08-10T08:44:05.439Z,25.72
2022-08-10T08:50:08.019Z,30.97
2022-08-10T08:56:03.301Z,32.47
2022-08-10T09:00:43.285Z,30.80
2022-08-10T09:05:58.824Z,29.23
2022-08-10T09:11:15.189Z,31.88
2022-08-10T09:16:25.592Z,33.03
2022-08-10T09:21:43.325Z,37.17
2022-08-10T09:27:09.210Z,38.09
2022-08-10T09:36:16.854Z,37.09
2022-08-10T09:38:01.810Z,37.11
2022-08-10T09:43:25.978Z,34.94
2022-08-10T09:48:36.884Z,33.67
2022-08-10T09:53:53.801Z,32.63
2022-08-10T09:59:47.314Z,33.28
2022-08-10T10:04:41.974Z,33.65
2022-08-10T10:09:56.383Z,36.23
2022-08-10T10:15:24.277Z,37.06
2022-08-10T10:20:38.579Z,35.54
2022-08-10T10:25:50.866Z,36.75
2022-08-10T10:35:55.057Z,36.38
2022-08-10T10:41:03.913Z,36.27
2022-08-10T10:46:23.303Z,37.42
2022-08-10T10:51:31.714Z,40.30
2022-08-10T10:56:51.575Z,42.21
2022-08-10T11:02:05.977Z,40.41
2022-08-10T11:07:21.821Z,39.61
2022-08-10T11:12:32.764Z,39.72
2022-08-10T11:17:44.238Z,37.36
2022-08-10T11:22:59.094Z,37.10
2022-08-10T11:28:13.086Z,34.49
2022-08-10T11:33:30.966Z,34.32
2022-08-10T11:39:11.000Z,36.25
2022-08-10T11:44:13.057Z,39.70
2022-08-10T11:49:28.424Z,38.48
2022-08-10T11:54:43.407Z,34.87
2022-08-10T11:59:59.405Z,33.07
2022-08-10T12:05:10.070Z,34.05
2022-08-10T12:10:16.483Z,35.92
2022-08-10T12:15:24.349Z,34.43
2022-08-10T12:20:32.665Z,32.41
2022-08-10T12:25:56.578Z,34.38
2022-08-10T12:31:04.736Z,35.62
2022-08-10T12:36:18.161Z,33.94
2022-08-10T12:41:44.635Z,32.54
2022-08-10T12:46:58.431Z,32.76
2022-08-10T12:52:07.667Z,32.02
2022-08-10T12:57:13.706Z,33.31
2022-08-10T13:02:22.778Z,35.56
2022-08-10T13:08:25.919Z,37.15
2022-08-10T13:12:57.974Z,36.00
2022-08-10T13:18:04.648Z,32.61
2022-08-10T13:23:15.679Z,26.83
2022-08-10T13:28:35.790Z,24.15
2022-08-10T13:34:39.448Z,26.75
2022-08-10T13:39:14.295Z,24.74
2022-08-10T13:44:30.045Z,23.01
2022-08-10T13:49:46.521Z,22.33
2022-08-10T13:54:51.214Z,21.80
2022-08-10T14:00:34.870Z,24.06
2022-08-10T14:05:27.915Z,22.12
2022-08-10T14:11:09.630Z,22.07
2022-08-10T14:16:07.358Z,27.18
2022-08-10T14:21:11.298Z,28.68
2022-08-10T14:26:19.566Z,32.54
2022-08-10T14:31:30.192Z,28.06
2022-08-10T14:36:41.784Z,25.66
2022-08-10T14:42:05.696Z,23.97
2022-08-10T14:47:51.635Z,23.17
2022-08-10T14:52:44.153Z,24.17
2022-08-10T14:58:20.096Z,26.15
2022-08-10T15:04:02.060Z,25.16
2022-08-10T15:08:47.060Z,25.82
2022-08-10T15:14:15.240Z,25.37
2022-08-10T15:20:03.294Z,24.83
2022-08-10T15:25:04.709Z,25.18
2022-08-10T15:30:10.653Z,26.25
2022-08-10T15:35:33.871Z,26.85
2022-08-10T15:40:51.353Z,26.91
2022-08-10T15:46:05.996Z,29.42
2022-08-10T15:51:22.969Z,30.78
2022-08-10T15:56:41.153Z,33.01
2022-08-10T16:02:14.759Z,33.65
2022-08-10T16:07:17.980Z,35.09
2022-08-10T16:12:29.031Z,35.11
2022-08-10T16:17:54.057Z,35.04
2022-08-10T16:23:04.047Z,33.81
2022-08-10T16:28:09.675Z,34.28
2022-08-10T16:33:52.613Z,34.34
2022-08-10T16:38:52.799Z,35.01
2022-08-10T16:44:00.401Z,35.28
2022-08-10T16:49:04.057Z,36.15
2022-08-10T16:54:11.151Z,35.96
2022-08-10T16:59:20.541Z,36.52
2022-08-10T17:04:26.777Z,35.62
2022-08-10T17:09:35.310Z,35.61
2022-08-10T17:14:40.421Z,35.75
2022-08-10T17:19:46.194Z,36.02
2022-08-10T17:24:55.761Z,36.31
2022-08-10T17:30:03.839Z,37.14
2022-08-10T17:35:13.552Z,38.45
2022-08-10T17:40:22.508Z,39.44
2022-08-10T17:45:46.223Z,39.82
2022-08-10T17:50:53.363Z,40.96
2022-08-10T17:56:01.397Z,41.97
2022-08-10T18:01:40.684Z,43.35
2022-08-10T18:06:32.575Z,43.94
2022-08-10T18:11:44.150Z,45.01
2022-08-10T18:16:54.919Z,46.64
2022-08-10T18:22:04.141Z,46.96
2022-08-10T18:27:14.774Z,48.52
2022-08-10T18:32:21.552Z,48.94
2022-08-10T18:37:28.064Z,48.85
2022-08-10T18:42:40.563Z,50.31
2022-08-10T18:47:56.107Z,51.07
2022-08-10T18:53:13.036Z,52.47
2022-08-10T18:58:44.264Z,53.51
2022-08-10T19:04:11.236Z,54.81
2022-08-10T19:09:45.865Z,55.58
2022-08-10T19:14:59.053Z,55.86
2022-08-10T19:20:12.174Z,56.86
2022-08-10T19:26:33.010Z,56.78
2022-08-10T19:30:56.799Z,58.71
2022-08-10T19:36:10.992Z,58.81
2022-08-10T19:41:21.426Z,58.36
2022-08-10T19:46:40.390Z,59.36
2022-08-10T19:51:52.714Z,59.48
2022-08-10T19:57:04.531Z,60.96
2022-08-10T20:02:12.308Z,60.54
2022-08-10T20:07:24.389Z,60.90
2022-08-10T20:12:41.067Z,60.57
2022-08-10T20:17:55.149Z,60.37
2022-08-10T20:23:08.454Z,60.16
2022-08-10T20:28:19.735Z,61.26
2022-08-10T20:33:34.084Z,61.28
2022-08-10T20:38:46.926Z,61.50
2022-08-10T20:44:01.447Z,62.06
2022-08-10T20:49:27.538Z,62.00
2022-08-10T20:54:36.483Z,62.93
2022-08-10T21:00:04.290Z,63.82
2022-08-10T21:05:24.872Z,63.84
2022-08-10T21:10:51.164Z,64.01
2022-08-10T21:16:04.496Z,64.83
2022-08-10T21:21:40.992Z,65.09
2022-08-10T21:26:56.554Z,65.20
2022-08-10T21:32:12.061Z,66.34
2022-08-10T21:37:22.765Z,66.38
2022-08-10T21:42:54.150Z,66.51
2022-08-10T21:48:30.167Z,67.33
2022-08-10T21:53:57.440Z,68.00
2022-08-10T21:59:22.324Z,68.38
2022-08-10T22:04:45.496Z,68.95
2022-08-10T22:10:12.058Z,69.19
2022-08-10T22:16:05.468Z,69.98
2022-08-10T22:21:27.106Z,70.70
2022-08-10T22:27:06.100Z,71.18
2022-08-10T22:32:38.116Z,70.91
2022-08-10T22:38:11.137Z,72.18
2022-08-10T22:43:42.943Z,72.95
2022-08-10T22:49:02.472Z,73.12
2022-08-10T22:54:34.441Z,73.67
2022-08-10T22:59:39.502Z,73.86
2022-08-10T23:04:48.295Z,74.35
2022-08-10T23:10:00.700Z,75.27
2022-08-10T23:15:26.660Z,75.03
2022-08-10T23:20:31.978Z,75.96
2022-08-10T23:25:43.752Z,75.91
2022-08-10T23:31:03.955Z,76.23
2022-08-10T23:36:33.661Z,76.51
2022-08-10T23:41:38.196Z,76.83
2022-08-10T23:46:44.458Z,77.27
2022-08-10T23:51:55.698Z,78.34
2022-08-10T23:57:01.926Z,78.62
